TimeMDT,TemperatureF,Dew PointF,Humidity,Sea Level PressureIn,VisibilityMPH,Wind Direction,Wind SpeedMPH,Gust SpeedMPH,PrecipitationIn,Events,Conditions,WindDirDegrees,DateUTC
12:15 AM,46.4,37.4,71,30.23,10.0,East,8.1,-,N/A,,Clear,80,2012-10-05 06:15:00
12:35 AM,46.4,37.4,71,30.22,10.0,East,9.2,-,N/A,,Clear,80,2012-10-05 06:35:00
12:55 AM,46.4,37.4,71,30.22,10.0,East,8.1,-,N/A,,Clear,90,2012-10-05 06:55:00
1:15 AM,44.6,37.4,76,30.22,10.0,East,6.9,-,N/A,,Clear,80,2012-10-05 07:15:00
1:35 AM,44.6,37.4,76,30.22,10.0,East,6.9,-,N/A,,Clear,80,2012-10-05 07:35:00
1:55 AM,44.6,37.4,76,30.22,10.0,East,6.9,-,N/A,,Clear,90,2012-10-05 07:55:00
2:15 AM,44.6,37.4,76,30.21,10.0,East,6.9,-,N/A,,Clear,100,2012-10-05 08:15:00
2:35 AM,44.6,37.4,76,30.21,10.0,East,5.8,-,N/A,,Clear,90,2012-10-05 08:35:00
2:55 AM,42.8,35.6,76,30.20,10.0,ESE,4.6,-,N/A,,Clear,110,2012-10-05 08:55:00
3:15 AM,42.8,35.6,76,30.20,10.0,East,5.8,-,N/A,,Clear,80,2012-10-05 09:15:00
3:35 AM,42.8,35.6,76,30.19,10.0,East,6.9,-,N/A,,Clear,90,2012-10-05 09:35:00
3:55 AM,42.8,35.6,76,30.19,10.0,East,5.8,-,N/A,,Clear,90,2012-10-05 09:55:00
4:15 AM,42.8,35.6,76,30.19,10.0,NE,4.6,-,N/A,,Clear,50,2012-10-05 10:15:00
4:35 AM,42.8,35.6,76,30.19,10.0,NE,5.8,-,N/A,,Clear,40,2012-10-05 10:35:00
4:55 AM,42.8,35.6,76,30.19,10.0,ENE,5.8,-,N/A,,Clear,60,2012-10-05 10:55:00
5:15 AM,42.8,35.6,76,30.18,10.0,NE,4.6,-,N/A,,Clear,50,2012-10-05 11:15:00
5:35 AM,41.0,35.6,81,30.19,10.0,ENE,5.8,-,N/A,,Clear,60,2012-10-05 11:35:00
5:55 AM,42.8,35.6,76,30.19,10.0,NE,4.6,-,N/A,,Clear,40,2012-10-05 11:55:00
6:15 AM,41.0,35.6,81,30.19,10.0,NE,5.8,-,N/A,,Clear,50,2012-10-05 12:15:00
6:35 AM,41.0,35.6,81,30.20,10.0,NE,4.6,-,N/A,,Clear,50,2012-10-05 12:35:00
6:55 AM,41.0,35.6,81,30.20,10.0,ENE,4.6,-,N/A,,Clear,60,2012-10-05 12:55:00
7:15 AM,41.0,35.6,81,30.20,10.0,ENE,3.5,-,N/A,,Clear,60,2012-10-05 13:15:00
7:35 AM,42.8,37.4,81,30.21,10.0,Calm,Calm,-,N/A,,Clear,0,2012-10-05 13:35:00
7:55 AM,44.6,37.4,76,30.21,10.0,ESE,3.5,-,N/A,,Scattered Clouds,120,2012-10-05 13:55:00
8:15 AM,44.6,39.2,81,30.21,10.0,SE,4.6,-,N/A,,Mostly Cloudy,130,2012-10-05 14:15:00
8:35 AM,48.2,39.2,71,30.22,10.0,SE,9.2,-,N/A,,Mostly Cloudy,130,2012-10-05 14:35:00
8:55 AM,51.8,39.2,62,30.21,10.0,SSE,11.5,-,N/A,,Partly Cloudy,150,2012-10-05 14:55:00
9:15 AM,51.8,39.2,62,30.21,10.0,SSE,11.5,-,N/A,,Clear,150,2012-10-05 15:15:00
9:35 AM,53.6,39.2,58,30.21,10.0,SE,10.4,-,N/A,,Clear,140,2012-10-05 15:35:00
9:55 AM,53.6,41.0,62,30.21,10.0,SSE,9.2,-,N/A,,Clear,150,2012-10-05 15:55:00
10:35 AM,57.2,42.8,59,30.19,10.0,South,11.5,-,N/A,,Clear,170,2012-10-05 16:35:00
10:55 AM,59.0,42.8,55,30.19,10.0,South,10.4,18.4,N/A,,Clear,190,2012-10-05 16:55:00
11:15 AM,60.8,42.8,52,30.18,10.0,South,9.2,-,N/A,,Clear,170,2012-10-05 17:15:00
11:35 AM,62.6,44.6,52,30.18,10.0,South,8.1,-,N/A,,Clear,190,2012-10-05 17:35:00
11:55 AM,62.6,44.6,52,30.18,10.0,South,9.2,-,N/A,,Clear,180,2012-10-05 17:55:00
12:35 PM,66.2,44.6,46,30.15,10.0,South,9.2,17.3,N/A,,Clear,180,2012-10-05 18:35:00
12:55 PM,66.2,44.6,46,30.14,10.0,South,5.8,17.3,N/A,,Clear,180,2012-10-05 18:55:00
1:15 PM,68.0,44.6,43,30.13,10.0,SSE,11.5,-,N/A,,Clear,150,2012-10-05 19:15:00
1:35 PM,69.8,44.6,40,30.11,10.0,SSE,9.2,-,N/A,,Clear,160,2012-10-05 19:35:00
1:55 PM,71.6,46.4,41,30.11,10.0,SSE,6.9,16.1,N/A,,Clear,150,2012-10-05 19:55:00
2:15 PM,73.4,46.4,38,30.09,10.0,SE,12.7,-,N/A,,Clear,140,2012-10-05 20:15:00
2:35 PM,73.4,46.4,38,30.08,10.0,South,10.4,18.4,N/A,,Clear,170,2012-10-05 20:35:00
2:55 PM,73.4,46.4,38,30.07,10.0,South,11.5,-,N/A,,Clear,170,2012-10-05 20:55:00
3:15 PM,75.2,46.4,36,30.07,10.0,SSE,13.8,-,N/A,,Clear,160,2012-10-05 21:15:00
3:35 PM,75.2,46.4,36,30.06,10.0,SE,13.8,18.4,N/A,,Clear,140,2012-10-05 21:35:00
3:55 PM,75.2,46.4,36,30.05,10.0,SSE,16.1,20.7,N/A,,Clear,150,2012-10-05 21:55:00
4:15 PM,75.2,46.4,36,30.05,10.0,SE,13.8,-,N/A,,Clear,140,2012-10-05 22:15:00
4:35 PM,75.2,46.4,36,30.05,10.0,SE,12.7,23.0,N/A,,Clear,140,2012-10-05 22:35:00
4:55 PM,73.4,46.4,38,30.05,10.0,SE,18.4,21.9,N/A,,Clear,130,2012-10-05 22:55:00
5:15 PM,73.4,46.4,38,30.05,10.0,SE,17.3,23.0,N/A,,Clear,130,2012-10-05 23:15:00
5:35 PM,71.6,48.2,43,30.05,10.0,ESE,21.9,26.5,N/A,,Clear,110,2012-10-05 23:35:00
5:55 PM,69.8,46.4,43,30.06,10.0,ESE,20.7,25.3,N/A,,Clear,120,2012-10-05 23:55:00
6:15 PM,69.8,46.4,43,30.07,9.0,ESE,17.3,-,N/A,,Clear,120,2012-10-06 00:15:00
6:35 PM,66.2,46.4,49,30.08,10.0,ESE,17.3,21.9,N/A,,Clear,120,2012-10-06 00:35:00
6:55 PM,66.2,46.4,49,30.09,10.0,ESE,17.3,-,N/A,,Clear,110,2012-10-06 00:55:00
7:15 PM,64.4,48.2,56,30.10,10.0,ESE,18.4,23.0,N/A,,Clear,110,2012-10-06 01:15:00
7:35 PM,60.8,44.6,55,30.11,10.0,East,21.9,27.6,N/A,,Clear,100,2012-10-06 01:35:00
7:55 PM,59.0,44.6,59,30.11,10.0,East,24.2,29.9,N/A,,Clear,100,2012-10-06 01:55:00
8:15 PM,57.2,42.8,59,30.13,10.0,East,23.0,28.8,N/A,,Clear,100,2012-10-06 02:15:00
8:35 PM,55.4,42.8,63,30.14,10.0,East,24.2,28.8,N/A,,Clear,100,2012-10-06 02:35:00
8:55 PM,55.4,42.8,63,30.14,10.0,East,23.0,27.6,N/A,,Clear,100,2012-10-06 02:55:00
9:35 PM,53.6,42.8,67,30.16,10.0,East,21.9,28.8,N/A,,Scattered Clouds,100,2012-10-06 03:35:00
9:55 PM,53.6,42.8,67,30.17,10.0,East,21.9,25.3,N/A,,Overcast,90,2012-10-06 03:55:00
10:15 PM,53.6,42.8,67,30.18,10.0,East,23.0,27.6,N/A,,Overcast,90,2012-10-06 04:15:00
10:35 PM,53.6,41.0,62,30.18,10.0,East,21.9,28.8,N/A,,Overcast,90,2012-10-06 04:35:00
10:55 PM,51.8,39.2,62,30.19,10.0,East,24.2,28.8,N/A,,Overcast,80,2012-10-06 04:55:00
11:15 PM,51.8,39.2,62,30.20,10.0,East,23.0,-,N/A,,Overcast,80,2012-10-06 05:15:00
11:35 PM,50.0,39.2,66,30.20,10.0,East,23.0,-,N/A,,Overcast,80,2012-10-06 05:35:00
11:55 PM,50.0,37.4,62,30.21,10.0,East,19.6,25.3,N/A,,Overcast,90,2012-10-06 05:55:00